KCUH/CUH METAR and TAF weather

Enter ICAO airport designator
Station Type Date Time Source
KCUH METAR 2019/10/21 22:35 UTC NOAA

KCUH 212235Z AUTO 29014G19KT 10SM CLR 19/M04 A2985 RMK AO2 T01911043


Station Type Date Time Source
KCUH Decoded METAR 2019/10/21 22:35 UTC NOAA

Cushing, Cushing Municipal Airport, OK, United States (KCUH) 35-56-59N 096-46-22W
Oct 21, 2019 - 06:35 PM EDT / 2019.10.21 2235 UTC
Wind: from the WNW (290 degrees) at 16 MPH (14 KT) gusting to 22 MPH (19 KT):0
Visibility: 10 mile(s):0
Sky conditions: clear
Temperature: 66.4 F (19.1 C)
Dew Point: 24.3 F (-4.3 C)
Relative Humidity: 20%
Pressure (altimeter): 29.85 in. Hg (1010 hPa)
ob: KCUH 212235Z AUTO 29014G19KT 10SM CLR 19/M04 A2985 RMK AO2 T01911043
cycle: 22

Station Type Date Time Source
KCUH TAF UTC NOAA

Error!

Example: see airport list